Time;durP1;ratioP1;P1;durP2;ratioP2;P2;SDS_P1;SDS_P2;PMS_P1;PMS_P2;Temp;Humidity;BMP_temperature;BMP_pressure;BME280_temperature;BME280_humidity;BME280_pressure;Samples;Min_cycle;Max_cycle;Signal;HPM_P1;HPM_P2
2024/01/27 00:01:35;;;;;;;;;;;0.90;99.90;;;;;;5077921;28;19924;-78
2024/01/27 00:04:02;;;;;;;;;;;0.80;99.90;;;;;;5077408;28;20289;-78
2024/01/27 00:06:29;;;;;;;;;;;0.80;99.90;;;;;;5078374;28;19924;-78
2024/01/27 00:08:55;;;;;;;;;;;0.80;99.90;;;;;;5077565;28;19950;-78
2024/01/27 00:11:24;;;;;;;;;;;0.80;99.90;;;;;;5079367;28;19931;-78
2024/01/27 00:13:51;;;;;;;;;;;0.80;99.90;;;;;;5078401;28;19991;-78
2024/01/27 00:16:17;;;;;;;;;;;0.80;99.90;;;;;;5078286;28;20393;-78
2024/01/27 00:18:44;;;;;;;;;;;0.70;99.90;;;;;;5078239;28;19928;-78
2024/01/27 00:21:10;;;;;;;;;;;0.70;99.90;;;;;;5077824;28;19924;-78
2024/01/27 00:23:37;;;;;;;;;;;0.70;99.90;;;;;;5078527;28;19924;-78
2024/01/27 00:26:04;;;;;;;;;;;0.70;99.90;;;;;;5078496;28;19928;-78
2024/01/27 00:28:32;;;;;;;;;;;0.70;99.90;;;;;;5079143;28;19924;-78
2024/01/27 00:30:59;;;;;;;;;;;0.70;99.90;;;;;;5078261;28;19974;-78
2024/01/27 00:33:25;;;;;;;;;;;0.70;99.90;;;;;;5076871;28;19974;-78
2024/01/27 00:35:52;;;;;;;;;;;0.70;99.90;;;;;;5082871;28;19928;-79
2024/01/27 00:38:19;;;;;;;;;;;0.70;99.90;;;;;;5083498;28;19960;-79
2024/01/27 00:40:45;;;;;;;;;;;0.70;99.90;;;;;;5083339;28;20387;-79
2024/01/27 00:43:12;;;;;;;;;;;0.60;99.90;;;;;;5082835;28;19929;-79
2024/01/27 00:45:39;;;;;;;;;;;0.50;99.90;;;;;;5076692;28;19947;-78
2024/01/27 00:48:06;;;;;;;;;;;0.50;99.90;;;;;;5084021;28;19925;-79
2024/01/27 00:50:33;;;;;;;;;;;0.50;99.90;;;;;;5080341;28;19931;-79
2024/01/27 05:30:05;;;;;;;;;;;0.40;99.90;;;;;;5159135;22;19956;-79
2024/01/27 05:32:31;;;;;;;;;;;0.20;99.90;;;;;;5085751;28;19924;-81
2024/01/27 05:34:58;;;;;;;;;;;0.20;99.90;;;;;;5092174;28;19932;-80
2024/01/27 05:37:24;;;;;;;;;;;0.20;99.90;;;;;;5094104;28;19925;-81
2024/01/27 05:39:51;;;;;;;;;;;0.20;99.90;;;;;;5084862;28;20373;-79
2024/01/27 05:42:17;;;;;;;;;;;0.20;99.90;;;;;;5082825;28;19924;-79
2024/01/27 05:44:45;;;;;;;;;;;0.20;99.90;;;;;;5083221;28;19928;-79
2024/01/27 05:47:12;;;;;;;;;;;0.20;99.90;;;;;;5083411;28;19946;-79
2024/01/27 05:49:39;;;;;;;;;;;0.20;99.90;;;;;;5083147;28;20289;-80
2024/01/27 05:52:06;;;;;;;;;;;0.20;99.90;;;;;;5083010;28;19975;-79
2024/01/27 05:54:33;;;;;;;;;;;0.20;99.90;;;;;;5084391;28;19932;-79
2024/01/27 05:56:59;;;;;;;;;;;0.20;99.90;;;;;;5083241;28;19937;-79
2024/01/27 05:59:26;;;;;;;;;;;0.20;99.90;;;;;;5082524;28;19925;-79
2024/01/27 06:01:52;;;;;;;;;;;0.10;99.90;;;;;;5084609;28;19924;-79
2024/01/27 06:04:20;;;;;;;;;;;0.10;99.90;;;;;;5085347;28;19933;-79
2024/01/27 06:06:47;;;;;;;;;;;0.00;99.90;;;;;;5084067;28;19925;-79
2024/01/27 06:09:13;;;;;;;;;;;0.00;99.90;;;;;;5083663;28;20266;-79
2024/01/27 06:11:40;;;;;;;;;;;-0.10;99.90;;;;;;5087176;28;19925;-79
2024/01/27 06:14:07;;;;;;;;;;;-0.10;99.90;;;;;;5085722;28;19925;-79
2024/01/27 06:16:35;;;;;;;;;;;-0.10;99.90;;;;;;5085832;28;19931;-79
2024/01/27 06:19:01;;;;;;;;;;;0.00;99.90;;;;;;5082526;28;19970;-79
2024/01/27 06:21:29;;;;;;;;;;;0.00;99.90;;;;;;5082046;28;20429;-80
2024/01/27 06:23:56;;;;;;;;;;;0.00;99.90;;;;;;5081941;28;20373;-80
2024/01/27 06:26:23;;;;;;;;;;;0.00;99.90;;;;;;5084041;28;19931;-79
2024/01/27 06:28:49;;;;;;;;;;;0.00;99.90;;;;;;5089991;28;19951;-79
2024/01/27 06:31:16;;;;;;;;;;;-0.10;99.90;;;;;;5088230;28;19929;-80
2024/01/27 06:33:43;;;;;;;;;;;-0.10;99.90;;;;;;5088060;28;20381;-79
2024/01/27 06:36:09;;;;;;;;;;;-0.10;99.90;;;;;;5089560;28;19936;-79
2024/01/27 06:38:38;;;;;;;;;;;-0.10;99.90;;;;;;5089319;28;19924;-79
2024/01/27 06:41:04;;;;;;;;;;;-0.10;99.90;;;;;;5083941;28;19925;-78
2024/01/27 06:43:31;;;;;;;;;;;-0.10;99.90;;;;;;5082769;28;19926;-78
2024/01/27 06:45:57;;;;;;;;;;;-0.10;99.90;;;;;;5082668;28;20292;-78
2024/01/27 06:48:25;;;;;;;;;;;-0.10;99.90;;;;;;5080912;28;20381;-78
2024/01/27 06:50:51;;;;;;;;;;;-0.10;99.90;;;;;;5078691;28;20439;-78
2024/01/27 06:53:18;;;;;;;;;;;-0.10;99.90;;;;;;5088862;28;19924;-80
2024/01/27 06:55:47;;;;;;;;;;;-0.10;99.90;;;;;;5090232;28;19931;-78
2024/01/27 06:58:13;;;;;;;;;;;0.00;99.90;;;;;;5086112;28;19924;-78
2024/01/27 07:00:40;;;;;;;;;;;0.00;99.90;;;;;;5088165;28;19936;-78
2024/01/27 07:03:07;;;;;;;;;;;0.00;99.90;;;;;;5094666;28;19924;-79
2024/01/27 07:05:38;;;;;;;;;;;0.10;99.90;;;;;;5102322;22;19924;-71
2024/01/27 07:08:05;;;;;;;;;;;0.10;99.90;;;;;;5076437;28;20369;-71
2024/01/27 07:10:32;;;;;;;;;;;0.10;99.90;;;;;;5075899;28;20355;-71
2024/01/27 07:13:00;;;;;;;;;;;0.10;99.90;;;;;;5076279;28;19928;-71
2024/01/27 07:15:27;;;;;;;;;;;0.00;99.90;;;;;;5076331;28;19925;-71
2024/01/27 07:17:53;;;;;;;;;;;-0.10;99.90;;;;;;5076014;28;19931;-71
2024/01/27 07:20:20;;;;;;;;;;;-0.20;99.90;;;;;;5076155;28;19956;-71
2024/01/27 07:22:47;;;;;;;;;;;-0.20;99.90;;;;;;5075828;28;19956;-72
2024/01/27 07:25:14;;;;;;;;;;;-0.20;99.90;;;;;;5075908;28;19931;-71
2024/01/27 07:27:41;;;;;;;;;;;-0.30;99.90;;;;;;5076140;28;19924;-71
2024/01/27 07:30:11;;;;;;;;;;;-0.30;99.90;;;;;;5076183;28;19924;-71
2024/01/27 07:32:37;;;;;;;;;;;-0.30;99.90;;;;;;5075699;28;20377;-71
2024/01/27 07:35:05;;;;;;;;;;;-0.40;99.90;;;;;;5075982;28;19924;-71
2024/01/27 07:37:32;;;;;;;;;;;-0.40;99.90;;;;;;5075948;28;19925;-71
2024/01/27 07:39:58;;;;;;;;;;;-0.30;99.90;;;;;;5075704;28;19924;-71
2024/01/27 07:42:25;;;;;;;;;;;-0.40;99.90;;;;;;5075798;28;20293;-71
2024/01/27 07:44:51;;;;;;;;;;;-0.40;99.90;;;;;;5075639;28;19924;-72
2024/01/27 07:47:19;;;;;;;;;;;-0.50;99.90;;;;;;5075594;28;19924;-71
2024/01/27 07:49:46;;;;;;;;;;;-0.60;99.90;;;;;;5075676;28;19932;-71
2024/01/27 07:52:12;;;;;;;;;;;-0.60;99.90;;;;;;5074730;28;19932;-71
2024/01/27 07:54:40;;;;;;;;;;;-0.70;99.90;;;;;;5075233;28;19931;-71
2024/01/27 07:57:06;;;;;;;;;;;-0.70;99.90;;;;;;5075269;28;19974;-71
2024/01/27 07:59:33;;;;;;;;;;;-0.70;99.90;;;;;;5075395;28;19933;-75
2024/01/27 08:02:00;;;;;;;;;;;-0.70;99.90;;;;;;5075340;28;19928;-75
2024/01/27 08:04:28;;;;;;;;;;;-0.70;99.90;;;;;;5075124;28;20361;-75
2024/01/27 08:06:55;;;;;;;;;;;-0.60;99.90;;;;;;5075312;28;20266;-75
2024/01/27 08:09:21;;;;;;;;;;;-0.50;99.90;;;;;;5075338;28;19928;-75
2024/01/27 08:11:51;;;;;;;;;;;-0.50;99.90;;;;;;5075932;28;19931;-75
2024/01/27 08:14:17;;;;;;;;;;;-0.50;99.90;;;;;;5080404;28;19950;-74
2024/01/27 08:16:44;;;;;;;;;;;-0.50;99.90;;;;;;5081883;28;20010;-74
2024/01/27 08:19:10;;;;;;;;;;;-0.50;99.90;;;;;;5081787;28;19928;-75
2024/01/27 08:21:38;;;;;;;;;;;-0.50;99.90;;;;;;5080903;28;20255;-75
2024/01/27 08:24:05;;;;;;;;;;;-0.50;99.90;;;;;;5075510;28;20412;-76
2024/01/27 08:26:32;;;;;;;;;;;-0.40;99.90;;;;;;5075184;28;19924;-76
2024/01/27 08:28:58;;;;;;;;;;;-0.40;99.90;;;;;;5074701;28;19928;-76
2024/01/27 08:31:25;;;;;;;;;;;-0.40;99.90;;;;;;5074658;28;19928;-76
2024/01/27 08:33:52;;;;;;;;;;;-0.30;99.90;;;;;;5074666;28;19924;-76
2024/01/27 08:36:18;;;;;;;;;;;-0.40;99.90;;;;;;5075161;28;19930;-74
2024/01/27 08:38:46;;;;;;;;;;;-0.20;99.90;;;;;;5075096;28;19928;-75
2024/01/27 08:41:13;;;;;;;;;;;-0.10;99.90;;;;;;5075179;28;19928;-75
2024/01/27 08:43:39;;;;;;;;;;;0.00;99.90;;;;;;5074660;28;19924;-75
2024/01/27 08:46:07;;;;;;;;;;;0.10;99.90;;;;;;5074474;28;19925;-75
2024/01/27 08:48:34;;;;;;;;;;;0.10;99.90;;;;;;5074610;28;20027;-75
2024/01/27 08:51:00;;;;;;;;;;;0.20;99.90;;;;;;5074593;28;19928;-75
2024/01/27 08:53:27;;;;;;;;;;;0.20;99.90;;;;;;5074680;28;19947;-75
2024/01/27 08:55:55;;;;;;;;;;;0.20;99.90;;;;;;5074382;28;20392;-75
2024/01/27 08:58:21;;;;;;;;;;;0.20;99.90;;;;;;5074714;28;19924;-75
2024/01/27 09:00:48;;;;;;;;;;;0.20;99.90;;;;;;5075154;28;19924;-75
2024/01/27 09:03:14;;;;;;;;;;;0.10;99.90;;;;;;5074577;28;19931;-75
2024/01/27 09:05:43;;;;;;;;;;;0.10;99.90;;;;;;5073956;28;19931;-77
2024/01/27 09:08:10;;;;;;;;;;;0.00;99.90;;;;;;5076252;28;19924;-76
2024/01/27 09:10:36;;;;;;;;;;;-0.10;99.90;;;;;;5077531;28;19925;-76
2024/01/27 09:13:05;;;;;;;;;;;-0.10;99.90;;;;;;5077404;28;19928;-75
2024/01/27 09:15:31;;;;;;;;;;;0.10;99.90;;;;;;5077535;28;19925;-76
2024/01/27 09:17:58;;;;;;;;;;;0.20;99.90;;;;;;5077688;28;19924;-75
2024/01/27 09:20:25;;;;;;;;;;;0.40;99.90;;;;;;5077167;28;19925;-76
2024/01/27 09:22:51;;;;;;;;;;;0.50;99.90;;;;;;5077464;28;19924;-75
2024/01/27 09:25:18;;;;;;;;;;;0.60;99.90;;;;;;5077410;28;19947;-75
2024/01/27 09:27:44;;;;;;;;;;;0.60;99.90;;;;;;5077376;28;20014;-75
2024/01/27 09:30:13;;;;;;;;;;;0.60;99.90;;;;;;5077039;28;19924;-74
2024/01/27 09:32:40;;;;;;;;;;;0.60;99.90;;;;;;5077110;28;20423;-74
2024/01/27 09:35:06;;;;;;;;;;;0.70;99.90;;;;;;5076836;28;20289;-73
2024/01/27 09:37:33;;;;;;;;;;;0.80;99.90;;;;;;5077508;28;19924;-73
2024/01/27 09:40:00;;;;;;;;;;;0.70;99.90;;;;;;5076812;28;19925;-73
2024/01/27 09:42:27;;;;;;;;;;;0.80;99.90;;;;;;5074549;28;19931;-73
2024/01/27 09:44:54;;;;;;;;;;;0.90;99.90;;;;;;5074192;28;19932;-74
2024/01/27 09:47:22;;;;;;;;;;;0.90;99.90;;;;;;5074072;28;20027;-74
2024/01/27 09:49:50;;;;;;;;;;;1.00;99.90;;;;;;5074002;28;19925;-74
2024/01/27 09:52:16;;;;;;;;;;;1.00;99.90;;;;;;5073488;28;20266;-74
2024/01/27 09:54:43;;;;;;;;;;;1.10;99.90;;;;;;5073728;28;20408;-74
2024/01/27 09:57:09;;;;;;;;;;;1.20;99.90;;;;;;5074293;28;19978;-73
2024/01/27 09:59:37;;;;;;;;;;;1.20;99.90;;;;;;5076152;28;19931;-73
2024/01/27 10:02:04;;;;;;;;;;;0.90;99.90;;;;;;5075327;28;19928;-73
2024/01/27 10:04:33;;;;;;;;;;;1.30;99.90;;;;;;5074390;28;20344;-74
2024/01/27 10:06:59;;;;;;;;;;;1.30;99.90;;;;;;5074273;28;19928;-73
2024/01/27 10:09:26;;;;;;;;;;;1.30;99.90;;;;;;5074553;28;19955;-73
2024/01/27 10:11:54;;;;;;;;;;;1.30;99.90;;;;;;5074073;28;19947;-73
2024/01/27 10:14:21;;;;;;;;;;;1.30;99.90;;;;;;5073811;28;19974;-74
2024/01/27 10:16:47;;;;;;;;;;;1.40;99.90;;;;;;5075973;28;19924;-73
2024/01/27 10:19:17;;;;;;;;;;;1.70;99.90;;;;;;5077355;28;19930;-73
2024/01/27 10:21:45;;;;;;;;;;;1.90;99.90;;;;;;5077849;28;19968;-73
2024/01/27 10:24:12;;;;;;;;;;;2.10;99.90;;;;;;5077916;28;19924;-74
2024/01/27 10:26:39;;;;;;;;;;;2.20;99.90;;;;;;5078613;28;19930;-74
2024/01/27 10:29:06;;;;;;;;;;;2.20;99.90;;;;;;5078525;28;20026;-74
2024/01/27 10:31:34;;;;;;;;;;;2.20;99.90;;;;;;5078932;28;19931;-75
2024/01/27 10:34:01;;;;;;;;;;;2.10;99.90;;;;;;5078272;28;20333;-76
2024/01/27 10:36:28;;;;;;;;;;;2.10;99.90;;;;;;5078740;28;19985;-76
2024/01/27 10:38:56;;;;;;;;;;;2.10;99.90;;;;;;5078268;28;19982;-76
2024/01/27 10:41:26;;;;;;;;;;;2.10;99.90;;;;;;5078919;28;19924;-75
2024/01/27 10:43:53;;;;;;;;;;;2.10;99.90;;;;;;5078679;28;20401;-75
2024/01/27 10:46:20;;;;;;;;;;;2.10;99.90;;;;;;5078786;28;19932;-76
2024/01/27 10:48:50;;;;;;;;;;;2.20;99.90;;;;;;5077505;28;19958;-75
2024/01/27 10:51:17;;;;;;;;;;;2.20;99.90;;;;;;5076554;28;19970;-74
2024/01/27 10:53:47;;;;;;;;;;;2.30;99.90;;;;;;5077188;28;19925;-73
2024/01/27 10:56:15;;;;;;;;;;;2.40;99.90;;;;;;5077652;28;20381;-74
2024/01/27 10:58:42;;;;;;;;;;;2.40;99.90;;;;;;5077512;28;19932;-74
2024/01/27 11:01:10;;;;;;;;;;;2.50;99.90;;;;;;5076793;28;19924;-74
2024/01/27 11:03:38;;;;;;;;;;;2.50;99.90;;;;;;5076725;28;19931;-74
2024/01/27 11:06:05;;;;;;;;;;;2.60;99.90;;;;;;5076411;28;20364;-74
2024/01/27 11:08:32;;;;;;;;;;;2.60;99.90;;;;;;5077565;28;19925;-74
2024/01/27 11:10:59;;;;;;;;;;;2.60;99.90;;;;;;5077162;28;19924;-74
2024/01/27 11:13:28;;;;;;;;;;;2.60;99.90;;;;;;5076463;28;19982;-74
2024/01/27 11:15:55;;;;;;;;;;;2.70;99.90;;;;;;5077124;28;20258;-76
2024/01/27 11:18:22;;;;;;;;;;;2.80;99.90;;;;;;5077067;28;19924;-76
2024/01/27 11:20:48;;;;;;;;;;;2.80;99.90;;;;;;5076209;28;19924;-76
2024/01/27 11:23:15;;;;;;;;;;;2.80;99.90;;;;;;5076257;28;19932;-76
2024/01/27 11:25:42;;;;;;;;;;;2.90;99.90;;;;;;5076106;28;19925;-76
2024/01/27 11:28:12;;;;;;;;;;;2.90;99.90;;;;;;5075009;28;20389;-76
2024/01/27 11:30:40;;;;;;;;;;;3.00;99.90;;;;;;5076160;28;20027;-76
2024/01/27 11:33:08;;;;;;;;;;;3.10;99.90;;;;;;5075999;28;19931;-76
2024/01/27 11:35:34;;;;;;;;;;;3.20;99.90;;;;;;5075841;28;19928;-76
2024/01/27 11:38:01;;;;;;;;;;;3.30;99.90;;;;;;5076022;28;19932;-76
2024/01/27 11:40:28;;;;;;;;;;;3.40;99.90;;;;;;5075992;28;19932;-76
2024/01/27 11:42:56;;;;;;;;;;;3.50;99.90;;;;;;5075938;28;19932;-76
2024/01/27 11:45:23;;;;;;;;;;;3.70;99.90;;;;;;5076016;28;19975;-76
2024/01/27 11:47:51;;;;;;;;;;;3.70;99.90;;;;;;5076279;28;19942;-75
2024/01/27 11:50:18;;;;;;;;;;;3.80;99.90;;;;;;5075971;28;19924;-75
2024/01/27 11:52:45;;;;;;;;;;;3.80;99.90;;;;;;5075828;28;19935;-76
2024/01/27 11:55:11;;;;;;;;;;;3.90;99.90;;;;;;5075494;28;20077;-76
2024/01/27 11:57:38;;;;;;;;;;;4.00;99.90;;;;;;5075534;28;19932;-77
2024/01/27 12:00:05;;;;;;;;;;;4.10;99.90;;;;;;5075675;28;19924;-77
2024/01/27 12:02:32;;;;;;;;;;;4.10;99.90;;;;;;5075744;28;19974;-76
2024/01/27 12:05:00;;;;;;;;;;;4.20;99.90;;;;;;5075191;28;19990;-76
2024/01/27 12:07:27;;;;;;;;;;;4.20;99.90;;;;;;5075357;28;19936;-76
2024/01/27 12:09:53;;;;;;;;;;;4.20;99.90;;;;;;5075353;28;20293;-76
2024/01/27 12:12:20;;;;;;;;;;;4.30;99.90;;;;;;5075364;28;19932;-77
2024/01/27 12:14:48;;;;;;;;;;;4.40;99.90;;;;;;5075263;28;19928;-76
2024/01/27 12:17:15;;;;;;;;;;;4.40;99.90;;;;;;5075020;28;19924;-76
2024/01/27 12:19:47;;;;;;;;;;;4.40;99.90;;;;;;5075309;28;20392;-76
2024/01/27 12:22:23;;;;;;;;;;;4.40;99.90;;;;;;5075900;28;20298;-77
2024/01/27 12:24:50;;;;;;;;;;;4.50;99.90;;;;;;5076138;28;20015;-77
2024/01/27 12:27:17;;;;;;;;;;;4.50;99.90;;;;;;5075284;28;19928;-76
2024/01/27 12:29:43;;;;;;;;;;;4.60;99.90;;;;;;5075499;28;19999;-76
2024/01/27 12:32:10;;;;;;;;;;;4.60;99.90;;;;;;5075031;28;19931;-77
2024/01/27 12:34:40;;;;;;;;;;;4.60;99.90;;;;;;5074870;28;19953;-76
2024/01/27 12:37:08;;;;;;;;;;;4.60;99.90;;;;;;5074972;28;19930;-76
2024/01/27 12:39:36;;;;;;;;;;;4.60;99.90;;;;;;5075060;28;19925;-77
2024/01/27 12:42:02;;;;;;;;;;;4.70;99.90;;;;;;5075432;28;19925;-76
2024/01/27 12:44:29;;;;;;;;;;;4.70;99.90;;;;;;5075926;28;19925;-76
2024/01/27 12:46:57;;;;;;;;;;;4.80;99.90;;;;;;5076198;28;19947;-76
2024/01/27 12:49:23;;;;;;;;;;;4.80;99.90;;;;;;5080178;28;19924;-76
2024/01/27 12:51:51;;;;;;;;;;;4.80;99.90;;;;;;5093893;28;19931;-76
2024/01/27 12:54:18;;;;;;;;;;;4.80;99.90;;;;;;5093969;28;20431;-77
2024/01/27 12:56:45;;;;;;;;;;;4.80;99.90;;;;;;5092764;28;19924;-77
2024/01/27 12:59:13;;;;;;;;;;;4.80;99.90;;;;;;5091892;28;19939;-77
2024/01/27 13:01:40;;;;;;;;;;;4.80;99.90;;;;;;5079344;28;19954;-77
2024/01/27 13:04:07;;;;;;;;;;;4.80;99.90;;;;;;5076669;28;19924;-78
2024/01/27 13:06:33;;;;;;;;;;;4.80;99.90;;;;;;5076388;28;19932;-77
2024/01/27 13:09:00;;;;;;;;;;;4.80;99.90;;;;;;5079464;28;19925;-77
2024/01/27 13:11:26;;;;;;;;;;;4.70;99.90;;;;;;5080432;28;19931;-77
2024/01/27 13:13:54;;;;;;;;;;;4.70;99.90;;;;;;5079987;28;19932;-77
2024/01/27 13:16:21;;;;;;;;;;;4.70;99.90;;;;;;5079104;28;19924;-77
2024/01/27 13:18:48;;;;;;;;;;;4.60;99.90;;;;;;5078683;28;20007;-77
2024/01/27 13:21:14;;;;;;;;;;;4.60;99.90;;;;;;5079019;28;19925;-76
2024/01/27 13:23:41;;;;;;;;;;;4.60;99.90;;;;;;5075043;28;19949;-76
2024/01/27 13:26:07;;;;;;;;;;;4.50;99.90;;;;;;5074742;28;19928;-76
2024/01/27 13:28:34;;;;;;;;;;;4.50;99.90;;;;;;5074360;28;19932;-76
2024/01/27 13:31:02;;;;;;;;;;;4.40;99.90;;;;;;5074893;28;19999;-76
2024/01/27 13:33:29;;;;;;;;;;;4.40;99.90;;;;;;5074321;28;19931;-75
2024/01/27 13:35:55;;;;;;;;;;;4.30;99.90;;;;;;5074403;28;19994;-76
2024/01/27 13:38:23;;;;;;;;;;;4.20;99.90;;;;;;5076957;28;19974;-75
2024/01/27 13:40:50;;;;;;;;;;;4.20;99.90;;;;;;5074735;28;19925;-77
2024/01/27 13:43:16;;;;;;;;;;;4.20;99.90;;;;;;5074358;28;19924;-75
2024/01/27 13:45:43;;;;;;;;;;;4.10;99.90;;;;;;5074143;28;19971;-74
2024/01/27 13:48:11;;;;;;;;;;;4.10;99.90;;;;;;5074307;28;20271;-74
2024/01/27 13:50:38;;;;;;;;;;;4.00;99.90;;;;;;5074582;28;19928;-74
2024/01/27 13:53:06;;;;;;;;;;;4.00;99.90;;;;;;5078565;28;19931;-73
2024/01/27 16:33:34;;;;;;;;;;;1.00;99.90;;;;;;5722714;22;20371;-75
2024/01/27 16:36:01;;;;;;;;;;;1.10;99.90;;;;;;5076826;28;19930;-75
2024/01/27 16:38:27;;;;;;;;;;;0.90;99.90;;;;;;5077426;28;19931;-75
2024/01/27 16:40:54;;;;;;;;;;;0.80;99.90;;;;;;5077850;28;19935;-74
2024/01/27 16:43:20;;;;;;;;;;;0.80;99.90;;;;;;5076186;28;19925;-74
2024/01/27 16:45:48;;;;;;;;;;;0.70;99.90;;;;;;5075977;28;19931;-74
2024/01/27 16:48:15;;;;;;;;;;;0.70;99.90;;;;;;5075802;28;19925;-74
2024/01/27 16:50:43;;;;;;;;;;;0.70;99.90;;;;;;5075569;28;19932;-75
2024/01/27 16:53:10;;;;;;;;;;;0.60;99.90;;;;;;5075339;28;19924;-72
2024/01/27 16:55:37;;;;;;;;;;;0.60;99.90;;;;;;5075185;28;20023;-71
2024/01/27 16:58:04;;;;;;;;;;;0.50;99.90;;;;;;5074838;28;20292;-70
2024/01/27 17:00:31;;;;;;;;;;;0.50;99.90;;;;;;5075136;28;20409;-70
2024/01/27 17:02:57;;;;;;;;;;;0.40;99.90;;;;;;5075250;28;20339;-69
2024/01/27 17:05:24;;;;;;;;;;;0.40;99.90;;;;;;5074764;28;19931;-70
2024/01/27 17:07:52;;;;;;;;;;;0.30;99.90;;;;;;5074834;28;19925;-70
2024/01/27 17:10:19;;;;;;;;;;;0.30;99.90;;;;;;5074712;28;19924;-69
2024/01/27 17:12:46;;;;;;;;;;;0.30;99.90;;;;;;5074684;28;19932;-70
2024/01/27 17:15:13;;;;;;;;;;;0.20;99.90;;;;;;5074389;28;19947;-70
2024/01/27 17:17:39;;;;;;;;;;;0.20;99.90;;;;;;5073833;28;20305;-69
2024/01/27 17:20:08;;;;;;;;;;;0.10;99.90;;;;;;5073984;28;19928;-71
2024/01/27 17:22:35;;;;;;;;;;;0.10;99.90;;;;;;5074198;28;19970;-70
2024/01/27 17:25:03;;;;;;;;;;;0.10;99.90;;;;;;5074329;28;19925;-70
2024/01/27 17:27:29;;;;;;;;;;;0.10;99.90;;;;;;5074272;28;19924;-70
2024/01/27 17:29:56;;;;;;;;;;;0.00;99.90;;;;;;5074396;28;19999;-70
2024/01/27 17:32:23;;;;;;;;;;;0.00;99.90;;;;;;5074121;28;20011;-69
2024/01/27 17:34:49;;;;;;;;;;;0.00;99.90;;;;;;5074187;28;19928;-69
2024/01/27 17:37:16;;;;;;;;;;;0.00;99.90;;;;;;5074855;28;19929;-69
2024/01/27 17:39:42;;;;;;;;;;;-0.10;99.90;;;;;;5075468;28;19924;-69
2024/01/27 17:42:10;;;;;;;;;;;-0.10;99.90;;;;;;5091275;28;20007;-69
2024/01/27 17:44:36;;;;;;;;;;;-0.10;99.90;;;;;;5094954;28;19932;-69
2024/01/27 17:47:03;;;;;;;;;;;-0.20;99.90;;;;;;5092996;28;19914;-69
2024/01/27 17:49:30;;;;;;;;;;;-0.20;99.90;;;;;;5091143;28;20267;-70
2024/01/27 17:51:56;;;;;;;;;;;-0.20;99.90;;;;;;5080687;28;19947;-69
2024/01/27 17:54:23;;;;;;;;;;;-0.20;99.90;;;;;;5074890;28;20428;-69
2024/01/27 17:56:53;;;;;;;;;;;-0.20;99.90;;;;;;5075468;28;20352;-70
2024/01/27 17:59:21;;;;;;;;;;;-0.30;99.90;;;;;;5075102;28;19931;-70
2024/01/27 18:01:47;;;;;;;;;;;-0.10;99.90;;;;;;5075304;28;19925;-70
2024/01/27 18:04:15;;;;;;;;;;;-0.30;99.90;;;;;;5075367;28;20289;-70
2024/01/27 18:06:41;;;;;;;;;;;-0.30;99.90;;;;;;5074742;28;19931;-70
2024/01/27 18:09:08;;;;;;;;;;;-0.40;99.90;;;;;;5075149;28;19924;-71
2024/01/27 18:11:35;;;;;;;;;;;-0.40;99.90;;;;;;5074779;28;19962;-71
2024/01/27 18:14:02;;;;;;;;;;;-0.30;99.90;;;;;;5075043;28;19925;-71
2024/01/27 18:16:30;;;;;;;;;;;-0.40;99.90;;;;;;5074494;28;20019;-71
2024/01/27 18:18:56;;;;;;;;;;;-0.40;99.90;;;;;;5074276;28;19924;-70
2024/01/27 18:21:23;;;;;;;;;;;-0.40;99.90;;;;;;5074503;28;19924;-70
2024/01/27 18:23:49;;;;;;;;;;;-0.50;99.90;;;;;;5074219;28;19925;-70
2024/01/27 18:26:16;;;;;;;;;;;-0.50;99.90;;;;;;5074182;28;19925;-71
2024/01/27 18:28:42;;;;;;;;;;;-0.50;99.90;;;;;;5074081;28;19931;-71
2024/01/27 18:31:09;;;;;;;;;;;-0.60;99.90;;;;;;5115426;22;19924;-76
2024/01/27 18:33:37;;;;;;;;;;;-0.30;99.90;;;;;;5077448;28;19925;-75
2024/01/27 18:36:11;;;;;;;;;;;-0.60;99.90;;;;;;5078180;28;19948;-75
2024/01/27 18:38:39;;;;;;;;;;;-0.70;99.90;;;;;;5082648;28;19924;-76
2024/01/27 18:41:19;;;;;;;;;;;-1.00;99.90;;;;;;5080791;28;19928;-76
2024/01/27 18:43:46;;;;;;;;;;;-0.50;99.90;;;;;;5082281;28;19924;-75
2024/01/27 18:46:16;;;;;;;;;;;-0.70;99.90;;;;;;5082060;28;19925;-76
2024/01/27 18:48:48;;;;;;;;;;;-0.70;99.90;;;;;;5080373;28;19967;-76
2024/01/27 18:51:18;;;;;;;;;;;-0.60;99.90;;;;;;5078127;28;20392;-76
2024/01/27 18:53:46;;;;;;;;;;;-0.60;99.90;;;;;;5080510;28;19930;-76
2024/01/27 18:56:15;;;;;;;;;;;-1.20;99.90;;;;;;5078808;28;19931;-75
2024/01/27 18:58:42;;;;;;;;;;;-0.70;99.90;;;;;;5081945;28;20336;-78
2024/01/27 19:01:11;;;;;;;;;;;0.90;99.90;;;;;;5080634;28;20387;-79
2024/01/27 19:03:38;;;;;;;;;;;-0.80;99.90;;;;;;5082867;28;19967;-79
2024/01/27 19:06:07;;;;;;;;;;;0.60;99.90;;;;;;5082703;28;19932;-80
2024/01/27 19:08:33;;;;;;;;;;;-0.80;99.90;;;;;;5084312;28;19925;-80
2024/01/27 19:11:00;;;;;;;;;;;-0.80;99.90;;;;;;5083661;28;19931;-79
2024/01/27 19:13:26;;;;;;;;;;;-0.60;99.90;;;;;;5084548;28;19924;-79
2024/01/27 19:15:54;;;;;;;;;;;-0.80;99.90;;;;;;5082320;28;19925;-79
2024/01/27 19:18:21;;;;;;;;;;;-0.80;99.90;;;;;;5083258;28;20000;-79
2024/01/27 19:20:48;;;;;;;;;;;-0.80;99.90;;;;;;5083046;28;19924;-79
2024/01/27 19:23:16;;;;;;;;;;;-0.80;99.90;;;;;;5081699;28;19931;-79
2024/01/27 19:25:42;;;;;;;;;;;-0.70;99.90;;;;;;5081626;28;19924;-79
2024/01/27 19:28:09;;;;;;;;;;;-0.80;99.90;;;;;;5080949;28;19924;-77
2024/01/27 19:30:36;;;;;;;;;;;-0.80;99.90;;;;;;5080239;28;19931;-78
2024/01/27 19:33:02;;;;;;;;;;;-0.80;99.90;;;;;;5080116;28;19931;-77
2024/01/27 19:35:29;;;;;;;;;;;-0.80;99.90;;;;;;5080331;28;19924;-78
2024/01/27 19:37:57;;;;;;;;;;;-0.80;99.90;;;;;;5080839;28;19924;-78
2024/01/27 19:40:25;;;;;;;;;;;-0.80;99.90;;;;;;5080333;28;19924;-77
2024/01/27 19:42:53;;;;;;;;;;;-0.80;99.90;;;;;;5080422;28;19925;-77
2024/01/27 19:45:21;;;;;;;;;;;-0.80;99.90;;;;;;5080408;28;19930;-80
2024/01/27 19:47:47;;;;;;;;;;;-0.70;99.90;;;;;;5081497;28;20300;-78
2024/01/27 19:50:14;;;;;;;;;;;-0.80;99.90;;;;;;5080411;28;20393;-78
2024/01/27 19:52:41;;;;;;;;;;;-0.80;99.90;;;;;;5079814;28;20035;-78
2024/01/27 19:55:09;;;;;;;;;;;-0.80;99.90;;;;;;5079322;28;19936;-78
2024/01/27 19:57:37;;;;;;;;;;;-0.70;99.90;;;;;;5079605;28;19924;-77
2024/01/27 20:00:04;;;;;;;;;;;-0.80;99.90;;;;;;5079878;28;19924;-78
2024/01/27 20:02:31;;;;;;;;;;;-0.70;99.90;;;;;;5079320;28;19925;-77
2024/01/27 20:04:59;;;;;;;;;;;-0.70;99.90;;;;;;5078903;28;21188;-77
2024/01/27 20:07:25;;;;;;;;;;;-0.70;99.90;;;;;;5080192;28;19947;-79
2024/01/27 20:09:52;;;;;;;;;;;-0.70;99.90;;;;;;5079942;28;19925;-78
2024/01/27 20:12:18;;;;;;;;;;;-0.70;99.90;;;;;;5079947;28;20020;-78
2024/01/27 20:14:46;;;;;;;;;;;-0.70;99.90;;;;;;5080497;28;19951;-77
2024/01/27 20:17:13;;;;;;;;;;;-0.70;99.90;;;;;;5079797;28;19947;-77
2024/01/27 20:19:39;;;;;;;;;;;-0.70;99.90;;;;;;5079394;28;20273;-76
2024/01/27 20:22:06;;;;;;;;;;;-0.70;99.90;;;;;;5076924;28;19931;-77
2024/01/27 20:24:33;;;;;;;;;;;-0.60;99.90;;;;;;5077577;28;19975;-77
2024/01/27 20:26:59;;;;;;;;;;;-0.60;99.90;;;;;;5075597;28;19931;-77
2024/01/27 20:29:26;;;;;;;;;;;-0.60;99.90;;;;;;5074708;28;19932;-77
2024/01/27 20:31:55;;;;;;;;;;;-0.60;99.90;;;;;;5075777;28;19925;-77
2024/01/27 20:34:22;;;;;;;;;;;-0.60;99.90;;;;;;5074659;28;19925;-77
2024/01/27 20:36:48;;;;;;;;;;;-0.60;99.90;;;;;;5074962;28;19932;-77
2024/01/27 20:39:15;;;;;;;;;;;-0.60;99.90;;;;;;5074677;28;19925;-77
2024/01/27 20:41:42;;;;;;;;;;;-0.60;99.90;;;;;;5074813;28;19982;-77
2024/01/27 20:44:09;;;;;;;;;;;-0.60;99.90;;;;;;5074939;28;19935;-77
2024/01/27 20:46:35;;;;;;;;;;;-0.60;99.90;;;;;;5076302;28;19975;-77
2024/01/27 20:49:03;;;;;;;;;;;-0.50;99.90;;;;;;5075884;28;19924;-77
2024/01/27 20:51:30;;;;;;;;;;;-0.50;99.90;;;;;;5075262;28;20348;-77
2024/01/27 20:53:56;;;;;;;;;;;-0.50;99.90;;;;;;5081078;28;19925;-78
2024/01/27 20:56:24;;;;;;;;;;;-0.50;99.90;;;;;;5079616;28;19942;-78
2024/01/27 20:58:50;;;;;;;;;;;-0.50;99.90;;;;;;5076864;28;20011;-78
2024/01/27 21:01:17;;;;;;;;;;;-0.50;99.90;;;;;;5074072;28;19925;-78
2024/01/27 21:03:45;;;;;;;;;;;-0.50;99.90;;;;;;5074627;28;20413;-80
2024/01/27 21:06:13;;;;;;;;;;;-0.50;99.90;;;;;;5075549;28;19972;-78
2024/01/27 21:08:39;;;;;;;;;;;-0.50;99.90;;;;;;5075342;28;19924;-78
2024/01/27 21:11:08;;;;;;;;;;;-0.50;99.90;;;;;;5074320;28;19964;-78
2024/01/27 21:13:35;;;;;;;;;;;-0.40;99.90;;;;;;5074842;28;19975;-78
2024/01/27 21:16:02;;;;;;;;;;;-0.50;99.90;;;;;;5076013;28;19925;-78
2024/01/27 21:18:28;;;;;;;;;;;-0.50;99.90;;;;;;5073914;28;19928;-78
2024/01/27 21:20:57;;;;;;;;;;;-0.50;99.90;;;;;;5074581;28;19924;-78
2024/01/27 21:23:25;;;;;;;;;;;-0.50;99.90;;;;;;5074559;28;19928;-78
2024/01/27 21:25:51;;;;;;;;;;;-0.50;99.90;;;;;;5074846;28;19932;-77
2024/01/27 21:28:18;;;;;;;;;;;-0.50;99.90;;;;;;5075016;28;19925;-77
2024/01/27 21:30:45;;;;;;;;;;;-0.50;99.90;;;;;;5073645;28;20255;-77
2024/01/27 21:33:12;;;;;;;;;;;-0.50;99.90;;;;;;5074031;28;19924;-77
2024/01/27 21:35:38;;;;;;;;;;;-0.50;99.90;;;;;;5074805;28;19929;-78
2024/01/27 21:38:05;;;;;;;;;;;-0.50;99.90;;;;;;5077112;28;19931;-79